Time;durP1;ratioP1;P1;durP2;ratioP2;P2;SDS_P1;SDS_P2;PMS_P1;PMS_P2;Temp;Humidity;BMP_temperature;BMP_pressure;BME280_temperature;BME280_humidity;BME280_pressure;Samples;Min_cycle;Max_cycle;Signal;HPM_P1;HPM_P2
2024/01/04 00:01:13;;;;;;;33.47;27.15;;;10.20;99.90;;;;;;4934742;29;20034;-79
2024/01/04 00:03:40;;;;;;;37.67;28.73;;;10.10;99.90;;;;;;4935120;29;20027;-80
2024/01/04 00:06:07;;;;;;;52.45;31.20;;;10.20;99.90;;;;;;4913116;29;20128;-79
2024/01/04 00:08:34;;;;;;;41.92;29.45;;;10.30;99.90;;;;;;4972391;28;20032;-79
2024/01/04 00:11:06;;;;;;;38.13;28.60;;;10.30;99.90;;;;;;4956607;28;20027;-79
2024/01/04 00:13:33;;;;;;;41.30;29.35;;;10.30;99.90;;;;;;4956738;28;20023;-79
2024/01/04 00:16:02;;;;;;;35.75;27.50;;;10.40;99.90;;;;;;4947017;28;20034;-79
2024/01/04 00:18:29;;;;;;;50.40;27.40;;;10.40;99.90;;;;;;4938473;29;20023;-79
2024/01/04 00:20:55;;;;;;;40.83;27.30;;;10.50;99.90;;;;;;4937404;29;20063;-79
2024/01/04 00:23:22;;;;;;;36.45;26.00;;;10.50;99.90;;;;;;4938813;29;20608;-78
2024/01/04 00:25:48;;;;;;;33.03;27.83;;;10.40;99.90;;;;;;4933289;29;20540;-80
2024/01/04 00:28:14;;;;;;;33.10;25.42;;;10.40;99.90;;;;;;4951391;29;20063;-80
2024/01/04 00:30:41;;;;;;;32.70;26.30;;;10.40;99.90;;;;;;4937380;29;20056;-80
2024/01/04 00:33:07;;;;;;;36.78;25.67;;;10.40;99.90;;;;;;4938190;29;20032;-80
2024/01/04 00:35:33;;;;;;;33.08;25.58;;;10.40;99.90;;;;;;4926792;29;20398;-80
2024/01/04 00:38:00;;;;;;;33.63;25.50;;;10.40;99.90;;;;;;4954409;29;20031;-80
2024/01/04 00:40:28;;;;;;;29.40;24.83;;;10.50;99.90;;;;;;4972340;28;20499;-80
2024/01/04 00:42:55;;;;;;;30.75;24.42;;;10.50;99.90;;;;;;4972013;28;20057;-79
2024/01/04 00:45:21;;;;;;;29.45;24.75;;;10.50;99.90;;;;;;4948075;29;20130;-79
2024/01/04 00:47:48;;;;;;;33.50;25.20;;;10.50;99.90;;;;;;4966747;28;20042;-79
2024/01/04 00:50:15;;;;;;;29.38;23.67;;;10.50;99.90;;;;;;4960961;28;20027;-79
2024/01/04 00:52:41;;;;;;;32.95;24.38;;;10.50;99.90;;;;;;4936772;29;20032;-79
2024/01/04 00:55:08;;;;;;;34.47;23.40;;;10.50;99.90;;;;;;4937006;29;20027;-79
2024/01/04 00:57:34;;;;;;;29.80;23.63;;;10.50;99.90;;;;;;4965597;28;20031;-79
2024/01/04 01:00:03;;;;;;;26.23;23.23;;;10.50;99.90;;;;;;4956373;28;20118;-78
2024/01/04 01:02:29;;;;;;;30.63;23.48;;;10.50;99.90;;;;;;4956209;28;20105;-79
2024/01/04 01:04:57;;;;;;;28.75;23.40;;;10.50;99.90;;;;;;4956263;28;20034;-80
2024/01/04 01:07:25;;;;;;;35.03;23.13;;;10.60;99.90;;;;;;4945657;28;20051;-80
2024/01/04 01:09:52;;;;;;;30.50;23.08;;;10.60;99.90;;;;;;4938822;28;20397;-79
2024/01/04 01:12:18;;;;;;;29.38;23.02;;;10.60;99.90;;;;;;4937540;29;20495;-79
2024/01/04 01:14:45;;;;;;;32.47;23.00;;;10.70;99.90;;;;;;4920787;29;20489;-78
2024/01/04 01:17:11;;;;;;;28.50;21.92;;;10.70;99.90;;;;;;4946845;28;20032;-79
2024/01/04 01:19:39;;;;;;;33.63;23.55;;;10.70;99.90;;;;;;4955547;28;20473;-79
2024/01/04 01:22:05;;;;;;;28.65;23.10;;;10.70;99.90;;;;;;4955801;28;20042;-79
2024/01/04 01:24:31;;;;;;;37.60;24.95;;;10.70;99.90;;;;;;4955794;29;20103;-79
2024/01/04 01:26:58;;;;;;;25.65;22.95;;;10.70;99.90;;;;;;4950739;28;20035;-79
2024/01/04 01:29:24;;;;;;;31.40;22.52;;;10.70;99.90;;;;;;4956937;28;20070;-79
2024/01/04 01:31:50;;;;;;;32.42;25.23;;;10.70;99.90;;;;;;4956859;28;20023;-80
2024/01/04 01:34:17;;;;;;;32.20;23.48;;;10.70;99.90;;;;;;4971761;28;20030;-79
2024/01/04 01:36:44;;;;;;;26.90;23.00;;;10.70;99.90;;;;;;4951658;28;20063;-79
2024/01/04 01:39:11;;;;;;;37.70;24.23;;;10.80;99.90;;;;;;4937651;29;20054;-79
2024/01/04 01:41:37;;;;;;;30.95;23.80;;;10.80;99.90;;;;;;4936131;29;20127;-80
2024/01/04 01:44:04;;;;;;;31.55;23.13;;;10.90;99.90;;;;;;4939840;29;20109;-79
2024/01/04 01:46:30;;;;;;;33.67;24.05;;;10.90;99.90;;;;;;4926543;28;20038;-80
2024/01/04 01:48:57;;;;;;;34.58;24.50;;;10.90;99.90;;;;;;4958490;28;20031;-79
2024/01/04 01:51:23;;;;;;;35.97;23.35;;;11.00;99.90;;;;;;4958385;28;20411;-80
2024/01/04 01:53:50;;;;;;;28.38;23.48;;;11.00;99.90;;;;;;4974522;28;20081;-80
2024/01/04 01:56:16;;;;;;;34.92;25.10;;;11.00;99.90;;;;;;4973241;28;20520;-79
2024/01/04 01:58:43;;;;;;;36.05;24.58;;;11.00;99.90;;;;;;4956476;28;20078;-79
2024/01/04 02:01:13;;;;;;;37.58;26.08;;;11.10;99.90;;;;;;4943270;29;20043;-79
2024/01/04 02:03:40;;;;;;;67.50;28.30;;;11.10;99.90;;;;;;4954951;29;20059;-79
2024/01/04 02:06:06;;;;;;;29.55;24.48;;;11.20;99.90;;;;;;4955011;29;20038;-79
2024/01/04 02:08:33;;;;;;;33.67;25.27;;;11.20;99.90;;;;;;4975296;28;20078;-80
2024/01/04 02:11:00;;;;;;;36.45;25.35;;;11.20;99.90;;;;;;4968488;28;20119;-80
2024/01/04 02:13:26;;;;;;;32.28;23.98;;;11.30;99.90;;;;;;4921624;29;20039;-80
2024/01/04 02:15:56;;;;;;;45.13;25.85;;;11.30;99.90;;;;;;4935780;29;20016;-81
2024/01/04 02:18:22;;;;;;;28.45;24.15;;;11.30;99.90;;;;;;4964620;28;20027;-80
2024/01/04 02:20:49;;;;;;;33.80;25.23;;;11.30;99.90;;;;;;4919781;29;20035;-80
2024/01/04 02:23:17;;;;;;;26.38;23.17;;;11.30;99.90;;;;;;4936390;29;20397;-80
2024/01/04 02:25:46;;;;;;;31.85;22.70;;;11.50;99.90;;;;;;4936624;29;20031;-81
2024/01/04 02:28:12;;;;;;;27.35;24.15;;;11.50;99.90;;;;;;4948614;29;20039;-80
2024/01/04 02:30:39;;;;;;;25.42;23.15;;;11.50;99.90;;;;;;4937209;29;20567;-80
2024/01/04 02:33:05;;;;;;;30.67;22.67;;;11.60;99.90;;;;;;4955467;29;20035;-80
2024/01/04 02:35:32;;;;;;;27.58;22.98;;;11.70;99.90;;;;;;4955721;29;20024;-80
2024/01/04 02:37:58;;;;;;;25.70;23.17;;;11.80;99.90;;;;;;4968540;28;20034;-81
2024/01/04 02:40:25;;;;;;;28.33;23.73;;;11.80;99.90;;;;;;4941537;28;20081;-80
2024/01/04 02:42:51;;;;;;;26.17;23.10;;;11.90;99.90;;;;;;4919678;29;20573;-80
2024/01/04 02:45:17;;;;;;;32.33;24.02;;;11.90;99.90;;;;;;4935116;29;20045;-80
2024/01/04 02:47:44;;;;;;;28.50;24.58;;;11.80;99.90;;;;;;4960358;28;20070;-79
2024/01/04 02:50:11;;;;;;;33.15;23.70;;;11.80;99.90;;;;;;4957426;28;20030;-79
2024/01/04 02:52:38;;;;;;;30.92;24.15;;;11.70;99.90;;;;;;4923589;29;20032;-80
2024/01/04 02:55:05;;;;;;;34.20;23.88;;;11.60;99.90;;;;;;4919154;29;20020;-80
2024/01/04 02:57:31;;;;;;;30.90;23.35;;;11.60;99.90;;;;;;4936133;29;20027;-80
2024/01/04 02:59:58;;;;;;;25.13;22.75;;;11.50;99.90;;;;;;4958953;28;20473;-80
2024/01/04 03:02:24;;;;;;;27.08;24.00;;;11.50;99.90;;;;;;4928002;29;20039;-81
2024/01/04 03:04:50;;;;;;;26.30;22.77;;;11.40;99.90;;;;;;4934928;29;20024;-81
2024/01/04 03:07:16;;;;;;;27.33;22.77;;;11.40;99.90;;;;;;4951042;28;20500;-80
2024/01/04 03:09:48;;;;;;;25.38;22.98;;;11.30;99.90;;;;;;4973384;28;20106;-81
2024/01/04 03:12:15;;;;;;;24.63;22.20;;;11.30;99.90;;;;;;4914159;29;20040;-81
2024/01/04 03:14:41;;;;;;;25.95;23.35;;;11.30;99.90;;;;;;4915007;29;20060;-81
2024/01/04 03:17:08;;;;;;;25.63;22.98;;;11.30;99.90;;;;;;4905682;29;20055;-81
2024/01/04 03:19:35;;;;;;;29.05;23.30;;;11.30;99.90;;;;;;4896359;29;20020;-81
2024/01/04 03:22:01;;;;;;;29.55;23.13;;;11.30;99.90;;;;;;4899220;29;20032;-81
2024/01/04 03:24:28;;;;;;;26.85;23.55;;;11.40;99.90;;;;;;4914737;29;20041;-80
2024/01/04 03:26:54;;;;;;;29.25;22.95;;;11.40;99.90;;;;;;4903694;29;20035;-81
2024/01/04 03:29:20;;;;;;;28.65;23.10;;;11.30;99.90;;;;;;4894065;29;20024;-80
2024/01/04 03:31:46;;;;;;;26.17;23.60;;;11.20;99.90;;;;;;4897877;29;20044;-81
2024/01/04 03:34:13;;;;;;;25.60;22.98;;;11.20;99.90;;;;;;4898889;29;20028;-81
2024/01/04 03:36:39;;;;;;;25.67;23.08;;;11.20;99.90;;;;;;4900344;29;20040;-81
2024/01/04 03:39:05;;;;;;;26.10;23.00;;;11.10;99.90;;;;;;4896918;29;20024;-81
2024/01/04 03:41:32;;;;;;;33.20;22.75;;;11.10;99.90;;;;;;4901043;29;20028;-80
2024/01/04 03:44:01;;;;;;;29.35;22.45;;;11.10;99.90;;;;;;4918413;29;20044;-81
2024/01/04 03:46:28;;;;;;;25.45;22.92;;;11.00;99.90;;;;;;4903737;29;20044;-81
2024/01/04 03:48:54;;;;;;;27.67;23.13;;;11.00;99.90;;;;;;4922726;28;20070;-80
2024/01/04 03:51:21;;;;;;;25.10;22.67;;;11.00;99.90;;;;;;4939753;29;20031;-80
2024/01/04 03:53:47;;;;;;;26.60;22.45;;;10.90;99.90;;;;;;4922560;29;20028;-81
2024/01/04 03:56:16;;;;;;;25.92;22.63;;;10.80;99.90;;;;;;4938194;29;20032;-81
2024/01/04 03:58:42;;;;;;;24.92;21.85;;;10.70;99.90;;;;;;4973506;28;20054;-81
2024/01/04 04:01:09;;;;;;;25.40;22.17;;;10.70;99.90;;;;;;4922470;29;20032;-79
2024/01/04 04:03:35;;;;;;;25.55;22.95;;;10.70;99.90;;;;;;4922312;29;20380;-80
2024/01/04 04:06:06;;;;;;;30.55;22.23;;;10.70;99.90;;;;;;4939372;29;20031;-81
2024/01/04 04:08:32;;;;;;;24.02;21.65;;;10.70;99.90;;;;;;4953389;29;20095;-80
2024/01/04 04:10:59;;;;;;;24.73;22.13;;;10.60;99.90;;;;;;4922817;29;20035;-80
2024/01/04 04:13:25;;;;;;;23.55;21.33;;;10.50;99.90;;;;;;4939203;29;20508;-79
2024/01/04 04:15:52;;;;;;;24.20;21.88;;;10.50;99.90;;;;;;4922162;29;20047;-81
2024/01/04 04:18:18;;;;;;;24.10;21.00;;;10.40;99.90;;;;;;4922378;29;20110;-80
2024/01/04 04:20:44;;;;;;;26.02;20.60;;;10.30;99.90;;;;;;4922010;29;20040;-80
2024/01/04 04:23:10;;;;;;;23.13;20.80;;;10.30;99.90;;;;;;4937776;29;20027;-81
2024/01/04 04:25:37;;;;;;;23.63;20.15;;;10.30;99.90;;;;;;4921746;29;20087;-81
2024/01/04 04:28:03;;;;;;;24.92;20.95;;;10.30;99.90;;;;;;4944634;29;20122;-81
2024/01/04 04:30:33;;;;;;;21.70;19.80;;;10.30;99.90;;;;;;4924844;29;20027;-81
2024/01/04 04:33:00;;;;;;;24.60;21.02;;;10.30;99.90;;;;;;4941029;29;20101;-83
2024/01/04 04:35:26;;;;;;;27.63;20.38;;;10.30;99.90;;;;;;4941260;29;20110;-82
2024/01/04 04:37:52;;;;;;;22.92;20.63;;;10.40;99.90;;;;;;4952597;28;20023;-82
2024/01/04 04:40:18;;;;;;;22.35;20.25;;;10.50;99.90;;;;;;4947898;29;20034;-83
2024/01/04 04:42:45;;;;;;;25.55;20.63;;;10.50;99.90;;;;;;4922090;29;20040;-84
2024/01/04 04:45:11;;;;;;;26.55;20.75;;;10.60;99.90;;;;;;4922335;29;20043;-81
2024/01/04 04:47:38;;;;;;;25.50;21.02;;;10.50;99.90;;;;;;4948107;29;20122;-81
2024/01/04 04:50:05;;;;;;;23.52;20.92;;;10.40;99.90;;;;;;4935824;28;20035;-80
2024/01/04 04:52:31;;;;;;;30.63;22.52;;;10.40;99.90;;;;;;4917591;29;20040;-79
2024/01/04 04:54:58;;;;;;;35.05;23.10;;;10.40;99.90;;;;;;4939698;29;20087;-80
2024/01/04 04:57:24;;;;;;;25.65;21.83;;;10.40;99.90;;;;;;4960674;28;20023;-80
2024/01/04 04:59:51;;;;;;;26.50;23.08;;;10.40;99.90;;;;;;4939962;28;20479;-81
2024/01/04 05:02:17;;;;;;;24.90;21.20;;;10.40;99.90;;;;;;4934044;29;20032;-82
2024/01/04 05:04:44;;;;;;;30.70;21.75;;;10.40;99.90;;;;;;4934029;29;20020;-83
2024/01/04 05:07:10;;;;;;;29.85;21.33;;;10.30;99.90;;;;;;4943331;29;20032;-82
2024/01/04 05:09:37;;;;;;;28.08;20.88;;;10.30;99.90;;;;;;4946930;29;20032;-80
2024/01/04 05:12:04;;;;;;;23.10;20.20;;;10.20;99.90;;;;;;4933799;29;20040;-80
2024/01/04 05:14:30;;;;;;;24.80;20.77;;;10.10;99.90;;;;;;4933778;29;20024;-80
2024/01/04 05:16:57;;;;;;;21.95;20.15;;;10.00;99.90;;;;;;4940336;28;20484;-79
2024/01/04 05:19:23;;;;;;;23.25;20.80;;;10.00;99.90;;;;;;4949078;28;20390;-80
2024/01/04 05:21:50;;;;;;;25.52;21.00;;;9.90;99.90;;;;;;4933638;29;20118;-80
2024/01/04 05:24:16;;;;;;;24.15;21.50;;;9.80;99.90;;;;;;4933613;29;20031;-81
2024/01/04 05:26:43;;;;;;;23.27;20.85;;;9.80;99.90;;;;;;4922042;29;20036;-83
2024/01/04 05:29:09;;;;;;;26.63;21.35;;;9.80;99.90;;;;;;4952091;28;20129;-82
2024/01/04 05:31:35;;;;;;;26.70;20.90;;;9.70;99.90;;;;;;4933857;29;20031;-81
2024/01/04 05:34:02;;;;;;;27.05;21.13;;;9.80;99.90;;;;;;4933675;29;20423;-81
2024/01/04 05:36:30;;;;;;;23.27;20.88;;;9.80;99.90;;;;;;4919196;29;20075;-81
2024/01/04 05:38:56;;;;;;;23.35;20.77;;;9.90;99.90;;;;;;4939415;29;20027;-79
2024/01/04 05:41:23;;;;;;;26.15;21.08;;;10.00;99.90;;;;;;4933299;29;20047;-80
2024/01/04 05:43:49;;;;;;;23.20;19.95;;;10.10;99.90;;;;;;4917189;29;20100;-80
2024/01/04 05:46:16;;;;;;;32.30;21.20;;;10.10;99.90;;;;;;4918600;29;20119;-80
2024/01/04 05:48:42;;;;;;;23.98;20.52;;;10.10;99.90;;;;;;4935327;29;20035;-80
2024/01/04 05:51:09;;;;;;;21.77;19.50;;;10.00;99.90;;;;;;4917723;29;20032;-80
2024/01/04 05:53:36;;;;;;;25.75;19.50;;;10.00;99.90;;;;;;4913889;29;20103;-80
2024/01/04 05:56:03;;;;;;;27.73;20.13;;;10.00;99.90;;;;;;4914092;29;20052;-80
2024/01/04 05:58:29;;;;;;;23.05;19.40;;;10.00;99.90;;;;;;4944226;29;20028;-80
2024/01/04 06:00:56;;;;;;;22.67;20.35;;;9.90;99.90;;;;;;4907046;29;20025;-80
2024/01/04 06:03:22;;;;;;;23.17;19.27;;;9.90;99.90;;;;;;4913914;29;20040;-79
2024/01/04 06:05:49;;;;;;;27.30;20.73;;;9.90;99.90;;;;;;4898080;29;20065;-80
2024/01/04 06:08:15;;;;;;;23.20;19.40;;;9.90;99.90;;;;;;4939809;29;20032;-80
2024/01/04 06:10:42;;;;;;;23.55;19.83;;;9.90;99.90;;;;;;4921988;29;20036;-79
2024/01/04 06:13:08;;;;;;;25.17;20.38;;;9.90;99.90;;;;;;4916903;29;20409;-80
2024/01/04 06:15:35;;;;;;;22.08;19.83;;;10.00;99.90;;;;;;4932790;29;20036;-80
2024/01/04 06:18:05;;;;;;;24.33;19.65;;;10.00;99.90;;;;;;4943737;29;20020;-80
2024/01/04 06:20:31;;;;;;;22.13;19.23;;;10.00;99.90;;;;;;4930239;29;20096;-80
2024/01/04 06:23:00;;;;;;;24.10;21.48;;;10.00;99.90;;;;;;4913549;29;20490;-81
2024/01/04 06:25:27;;;;;;;27.63;19.30;;;10.00;99.90;;;;;;4899022;29;20048;-80
2024/01/04 06:27:54;;;;;;;21.65;19.25;;;9.90;99.90;;;;;;4933009;29;20031;-80
2024/01/04 06:30:20;;;;;;;29.52;20.30;;;10.00;99.90;;;;;;4918774;29;20024;-79
2024/01/04 06:32:46;;;;;;;22.52;19.70;;;10.00;99.90;;;;;;4897569;29;20032;-80
2024/01/04 06:35:13;;;;;;;26.05;19.50;;;10.10;99.90;;;;;;4913159;29;20032;-81
2024/01/04 06:37:39;;;;;;;22.70;18.75;;;10.10;99.90;;;;;;4929083;29;20378;-80
2024/01/04 06:40:08;;;;;;;21.20;18.95;;;10.10;99.90;;;;;;4921816;29;20063;-80
2024/01/04 06:42:36;;;;;;;25.25;18.35;;;10.30;99.90;;;;;;4918331;29;20442;-80
2024/01/04 06:45:06;;;;;;;24.27;19.80;;;10.30;99.90;;;;;;4935001;29;20050;-81
2024/01/04 06:47:33;;;;;;;22.85;19.95;;;10.50;99.90;;;;;;4932989;28;20058;-80
2024/01/04 06:49:59;;;;;;;23.20;20.83;;;10.60;99.90;;;;;;4946171;29;20066;-81
2024/01/04 06:52:26;;;;;;;23.23;19.25;;;10.90;99.90;;;;;;4936404;29;20035;-80
2024/01/04 06:54:52;;;;;;;19.40;17.23;;;11.10;99.90;;;;;;4919185;29;20023;-80
2024/01/04 06:57:19;;;;;;;18.27;15.45;;;11.30;99.90;;;;;;4944784;28;20042;-80
2024/01/04 06:59:45;;;;;;;15.98;14.13;;;11.30;99.90;;;;;;4966958;28;20608;-79
2024/01/04 07:02:12;;;;;;;20.08;14.07;;;11.40;99.90;;;;;;4955480;29;20027;-80
2024/01/04 07:04:38;;;;;;;15.95;10.85;;;11.80;99.90;;;;;;4955252;29;20026;-80
2024/01/04 07:07:05;;;;;;;20.02;10.25;;;12.20;99.90;;;;;;4931520;28;20505;-80
2024/01/04 07:09:31;;;;;;;17.83;10.20;;;12.40;99.90;;;;;;4941197;28;20038;-80
2024/01/04 07:11:58;;;;;;;13.45;7.65;;;12.60;99.90;;;;;;4950453;29;20024;-80
2024/01/04 07:14:24;;;;;;;12.93;8.23;;;12.80;99.90;;;;;;4937941;29;20027;-81
2024/01/04 07:16:51;;;;;;;11.23;8.90;;;12.90;99.90;;;;;;4929577;28;20028;-80
2024/01/04 07:19:17;;;;;;;15.90;9.30;;;12.90;99.90;;;;;;4956985;28;20027;-81
2024/01/04 07:21:44;;;;;;;12.93;11.57;;;13.30;99.90;;;;;;4956999;28;20031;-81
2024/01/04 07:24:10;;;;;;;13.30;12.00;;;13.40;99.90;;;;;;4972873;28;20507;-81
2024/01/04 07:26:36;;;;;;;23.85;14.15;;;13.70;99.90;;;;;;4941748;29;20043;-80
2024/01/04 07:29:04;;;;;;;24.20;17.83;;;13.70;99.90;;;;;;4932574;29;20036;-81
2024/01/04 07:31:31;;;;;;;20.73;18.05;;;13.90;99.90;;;;;;4935741;29;20035;-81
2024/01/04 07:33:59;;;;;;;22.55;18.05;;;14.00;99.90;;;;;;4935538;29;20106;-81
2024/01/04 07:36:26;;;;;;;21.67;17.73;;;14.00;99.90;;;;;;4934340;29;20390;-81
2024/01/04 07:38:52;;;;;;;21.05;18.95;;;14.10;99.90;;;;;;4934269;29;20019;-81
2024/01/04 07:41:19;;;;;;;21.80;19.27;;;14.30;99.90;;;;;;4935633;29;20023;-80
2024/01/04 07:43:47;;;;;;;23.42;20.90;;;14.40;99.90;;;;;;4935354;29;20135;-81
2024/01/04 07:46:13;;;;;;;23.17;20.95;;;14.50;99.90;;;;;;4931230;29;20089;-81
2024/01/04 07:48:39;;;;;;;24.05;21.58;;;14.40;99.90;;;;;;4952192;28;20035;-81
2024/01/04 07:51:06;;;;;;;26.20;22.67;;;14.40;99.90;;;;;;4956770;28;20031;-82
2024/01/04 07:53:32;;;;;;;36.47;26.65;;;14.50;99.90;;;;;;4940802;28;20030;-79
2024/01/04 07:55:59;;;;;;;28.35;24.42;;;14.60;99.90;;;;;;4946077;29;20043;-80
2024/01/04 07:58:25;;;;;;;27.60;24.02;;;14.60;99.90;;;;;;4934359;28;20027;-80
2024/01/04 08:00:52;;;;;;;26.42;22.55;;;14.60;99.90;;;;;;4956351;28;20030;-80
2024/01/04 08:03:18;;;;;;;24.52;22.00;;;14.70;99.90;;;;;;4956732;28;20035;-79
2024/01/04 08:05:45;;;;;;;23.40;21.10;;;14.90;99.90;;;;;;4947885;29;20035;-80
2024/01/04 08:08:11;;;;;;;23.35;21.05;;;15.10;99.90;;;;;;4937259;29;20445;-81
2024/01/04 08:10:37;;;;;;;20.98;19.13;;;15.20;99.90;;;;;;4934565;29;20028;-80
2024/01/04 08:13:05;;;;;;;23.85;19.20;;;15.10;99.90;;;;;;4934064;29;20027;-80
2024/01/04 08:15:33;;;;;;;19.95;17.98;;;15.30;99.90;;;;;;4933907;29;20052;-79
2024/01/04 08:18:01;;;;;;;19.08;17.38;;;15.20;99.90;;;;;;4953589;28;20019;-80
2024/01/04 08:20:27;;;;;;;20.40;17.08;;;15.40;99.90;;;;;;4922594;29;20063;-80
2024/01/04 08:22:55;;;;;;;18.40;16.50;;;15.50;99.90;;;;;;4934143;29;20103;-82
2024/01/04 08:25:22;;;;;;;17.83;16.35;;;15.50;99.90;;;;;;4918160;29;20087;-80
2024/01/04 08:27:48;;;;;;;18.60;16.90;;;15.60;99.90;;;;;;4949123;28;20041;-80
2024/01/04 08:30:14;;;;;;;18.35;16.60;;;15.70;99.90;;;;;;4944959;29;20114;-80
2024/01/04 08:32:41;;;;;;;17.63;16.35;;;15.80;99.90;;;;;;4956757;29;20200;-80
2024/01/04 08:35:08;;;;;;;19.85;16.70;;;15.90;99.90;;;;;;4940711;29;20082;-81
2024/01/04 08:37:37;;;;;;;19.90;16.38;;;16.00;99.90;;;;;;4946078;28;20027;-80
2024/01/04 08:40:04;;;;;;;19.50;16.65;;;16.00;99.90;;;;;;4933442;29;20048;-80
2024/01/04 08:42:31;;;;;;;22.85;17.58;;;16.10;99.90;;;;;;4938363;29;20027;-80
2024/01/04 08:44:58;;;;;;;21.23;17.10;;;16.20;99.90;;;;;;4937287;29;20461;-80
2024/01/04 08:47:24;;;;;;;18.90;17.23;;;16.30;99.90;;;;;;4946438;28;20119;-78
2024/01/04 08:49:51;;;;;;;18.95;17.00;;;16.40;99.90;;;;;;4957628;29;20027;-80
2024/01/04 08:52:17;;;;;;;18.63;16.35;;;16.50;99.90;;;;;;4957494;29;20062;-80
2024/01/04 08:54:44;;;;;;;18.70;16.95;;;16.60;99.90;;;;;;4959963;28;20183;-80
2024/01/04 08:57:10;;;;;;;18.52;16.70;;;16.60;99.90;;;;;;4940557;28;20034;-80
2024/01/04 08:59:37;;;;;;;22.52;17.50;;;16.70;99.90;;;;;;4957527;29;20063;-80
2024/01/04 09:02:03;;;;;;;20.55;16.92;;;16.70;99.90;;;;;;4940104;29;20039;-80
2024/01/04 09:04:29;;;;;;;18.65;16.75;;;16.90;99.90;;;;;;4936885;29;20023;-80
2024/01/04 09:06:56;;;;;;;19.98;17.73;;;17.00;99.90;;;;;;4948205;29;20036;-78
2024/01/04 09:09:22;;;;;;;17.73;16.42;;;17.10;99.90;;;;;;4956718;28;20145;-80
2024/01/04 09:11:49;;;;;;;18.20;16.80;;;17.20;99.90;;;;;;4956178;29;20050;-80
2024/01/04 09:14:16;;;;;;;18.83;17.02;;;17.30;99.90;;;;;;4957177;29;20035;-80
2024/01/04 09:16:44;;;;;;;19.08;17.30;;;17.30;99.90;;;;;;4957095;29;20106;-80
2024/01/04 09:19:19;;;;;;;18.95;17.20;;;17.40;99.90;;;;;;4959094;28;20189;-80
2024/01/04 09:21:47;;;;;;;20.27;17.98;;;17.40;99.90;;;;;;4937936;29;20031;-81
2024/01/04 09:24:18;;;;;;;20.05;18.17;;;17.60;99.90;;;;;;4938941;29;20024;-83
2024/01/04 09:26:47;;;;;;;21.50;19.55;;;17.60;99.90;;;;;;4937603;29;20568;-80
2024/01/04 09:29:17;;;;;;;24.10;19.52;;;17.60;99.90;;;;;;4941746;28;20070;-81
2024/01/04 09:31:43;;;;;;;22.52;20.15;;;17.70;99.90;;;;;;4919921;29;20121;-82
2024/01/04 09:34:10;;;;;;;20.77;18.90;;;17.80;99.90;;;;;;4936103;29;20058;-80
2024/01/04 09:36:37;;;;;;;20.40;18.85;;;17.90;99.90;;;;;;4937678;29;20032;-80
2024/01/04 09:39:03;;;;;;;21.33;19.38;;;18.00;99.90;;;;;;4968731;28;20026;-80
2024/01/04 09:41:35;;;;;;;21.20;19.42;;;18.20;99.90;;;;;;4925325;29;20052;-83
2024/01/04 09:44:04;;;;;;;22.42;20.33;;;18.40;99.90;;;;;;4933151;29;20052;-83
2024/01/04 09:46:36;;;;;;;21.38;19.45;;;18.30;99.90;;;;;;4901526;29;20047;-83
2024/01/04 09:49:04;;;;;;;23.02;20.77;;;18.30;99.90;;;;;;4900983;29;20497;-84
2024/01/04 09:51:39;;;;;;;21.75;19.88;;;18.20;99.90;;;;;;4916867;29;20028;-82
2024/01/04 09:54:13;;;;;;;22.05;20.10;;;18.20;99.90;;;;;;4931191;29;20039;-81
2024/01/04 09:57:30;;;;;;;22.23;20.33;;;18.20;99.90;;;;;;4909815;29;20063;-82
2024/01/04 10:00:24;;;;;;;21.83;19.88;;;18.20;99.90;;;;;;4911102;29;20032;-82
2024/01/04 10:03:12;;;;;;;21.35;19.70;;;18.30;99.90;;;;;;4932047;29;20036;-82
2024/01/04 10:05:42;;;;;;;22.80;20.70;;;18.20;99.90;;;;;;4916916;29;20039;-79
2024/01/04 10:08:25;;;;;;;21.83;19.90;;;18.20;99.90;;;;;;4940954;29;20043;-80
2024/01/04 10:11:20;;;;;;;21.77;19.67;;;18.10;99.90;;;;;;4933153;29;20028;-81
2024/01/04 10:14:01;;;;;;;21.50;19.65;;;18.10;99.90;;;;;;4916552;29;20405;-81
2024/01/04 10:16:56;;;;;;;20.55;18.65;;;18.10;99.90;;;;;;4916801;29;20028;-80
2024/01/04 10:19:42;;;;;;;26.20;19.38;;;18.00;99.90;;;;;;4917769;29;20028;-81
2024/01/04 10:22:08;;;;;;;21.35;19.52;;;18.00;99.90;;;;;;4932459;29;20060;-83
2024/01/04 10:24:41;;;;;;;21.08;19.08;;;18.00;99.90;;;;;;4916471;29;20032;-82
2024/01/04 10:27:08;;;;;;;21.20;19.42;;;17.90;99.90;;;;;;4901959;29;20054;-85
2024/01/04 10:29:37;;;;;;;20.58;18.92;;;17.90;99.90;;;;;;4936071;29;20024;-84
2024/01/04 10:32:09;;;;;;;22.73;19.33;;;18.00;99.90;;;;;;4935947;29;20035;-85
2024/01/04 10:34:38;;;;;;;23.08;20.13;;;18.00;99.90;;;;;;4927423;29;20394;-79
2024/01/04 10:37:13;;;;;;;25.33;20.35;;;18.10;99.90;;;;;;4917662;29;20501;-83
2024/01/04 10:39:56;;;;;;;21.58;19.38;;;18.10;99.90;;;;;;4909270;29;20039;-83
2024/01/04 10:42:23;;;;;;;22.95;20.60;;;18.20;99.90;;;;;;4918024;29;20039;-82
2024/01/04 10:44:53;;;;;;;22.20;20.00;;;18.20;99.90;;;;;;4954158;29;20035;-82
2024/01/04 10:47:20;;;;;;;22.63;20.33;;;18.20;99.90;;;;;;4955265;28;20054;-83
2024/01/04 10:49:49;;;;;;;22.80;20.67;;;18.30;99.90;;;;;;4946149;28;20037;-83
2024/01/04 10:52:17;;;;;;;23.05;20.83;;;18.30;99.90;;;;;;4937815;29;20066;-80
2024/01/04 10:54:44;;;;;;;25.75;21.40;;;18.40;99.90;;;;;;4947003;29;20142;-91
2024/01/04 10:57:12;;;;;;;22.88;20.90;;;18.40;99.90;;;;;;4940670;28;20035;-91
2024/01/04 10:59:43;;;;;;;23.15;21.35;;;18.40;99.90;;;;;;4959710;29;20023;-90
2024/01/04 11:02:13;;;;;;;23.60;21.13;;;18.50;99.90;;;;;;4960617;29;20038;-89
2024/01/04 11:04:41;;;;;;;23.05;21.25;;;18.50;99.90;;;;;;4957723;29;20122;-90
2024/01/04 11:07:08;;;;;;;23.20;21.27;;;18.50;99.90;;;;;;4956163;29;20047;-91
2024/01/04 11:09:36;;;;;;;22.70;20.70;;;18.50;99.90;;;;;;4955637;29;20027;-89
2024/01/04 11:12:03;;;;;;;23.95;21.50;;;18.50;99.90;;;;;;4955603;29;20027;-88
2024/01/04 11:14:33;;;;;;;23.80;21.70;;;18.50;99.90;;;;;;4947458;29;20028;-88
2024/01/04 11:17:21;;;;;;;24.13;22.10;;;18.50;99.90;;;;;;4936048;29;20442;-88
2024/01/04 11:20:12;;;;;;;23.23;21.10;;;18.50;99.90;;;;;;4935990;29;20070;-88
2024/01/04 11:22:38;;;;;;;24.50;21.90;;;18.50;99.90;;;;;;4935971;29;20393;-87
2024/01/04 11:25:32;;;;;;;22.98;21.17;;;18.50;99.90;;;;;;4947246;29;20110;-87
2024/01/04 11:28:01;;;;;;;24.58;20.73;;;18.50;99.90;;;;;;4968222;28;20043;-83
2024/01/04 11:30:29;;;;;;;22.85;20.98;;;18.50;99.90;;;;;;4954630;29;20062;-85
2024/01/04 11:32:56;;;;;;;22.50;20.58;;;18.60;99.90;;;;;;4953214;28;20436;-88
2024/01/04 11:35:22;;;;;;;22.17;20.33;;;18.50;99.90;;;;;;4938635;29;20020;-88
2024/01/04 11:37:52;;;;;;;21.45;19.63;;;18.50;99.90;;;;;;4943864;29;20071;-88
2024/01/04 11:40:29;;;;;;;21.75;19.42;;;18.60;99.90;;;;;;4920685;29;20031;-88
2024/01/04 11:42:56;;;;;;;21.65;19.90;;;18.60;99.90;;;;;;4917763;29;20048;-87
2024/01/04 11:45:24;;;;;;;21.15;19.52;;;18.60;99.90;;;;;;4901699;29;20032;-89
2024/01/04 11:47:55;;;;;;;22.10;19.55;;;18.60;99.90;;;;;;4916684;29;20044;-89
2024/01/04 11:50:28;;;;;;;20.98;19.10;;;18.60;99.90;;;;;;4917266;29;20386;-88
2024/01/04 11:53:06;;;;;;;21.70;19.40;;;18.60;99.90;;;;;;4917142;29;20032;-89
2024/01/04 11:55:35;;;;;;;22.05;19.77;;;18.50;99.90;;;;;;4917209;29;20493;-89
2024/01/04 11:58:13;;;;;;;20.50;18.77;;;18.50;99.90;;;;;;4917209;29;20503;-89
2024/01/04 12:00:50;;;;;;;21.50;19.50;;;18.40;99.90;;;;;;4932539;29;20437;-88
2024/01/04 12:03:20;;;;;;;21.55;19.80;;;18.50;99.90;;;;;;4919746;29;20123;-89
2024/01/04 12:05:54;;;;;;;21.52;19.58;;;18.60;99.90;;;;;;4920340;29;20036;-89
2024/01/04 12:08:28;;;;;;;20.25;18.70;;;18.50;99.90;;;;;;4920397;29;20494;-90
2024/01/04 12:10:55;;;;;;;;;;;18.40;99.90;;;;;;4920783;29;20059;-89
2024/01/04 12:13:23;;;;;;;20.70;19.08;;;18.40;99.90;;;;;;4920368;29;19914;-89
2024/01/04 12:15:51;;;;;;;20.63;18.70;;;18.40;99.90;;;;;;4920254;29;20033;-90
2024/01/04 12:18:18;;;;;;;21.73;19.42;;;18.50;99.90;;;;;;4904510;29;20039;-90
2024/01/04 12:20:46;;;;;;;21.33;19.33;;;18.50;99.90;;;;;;4920359;29;20060;-90
2024/01/04 12:23:14;;;;;;;22.88;19.27;;;18.50;99.90;;;;;;4904538;29;20032;-90
2024/01/04 12:25:41;;;;;;;19.52;17.88;;;18.50;99.90;;;;;;4920029;29;20032;-90
2024/01/04 12:28:09;;;;;;;19.92;18.00;;;18.60;99.90;;;;;;4919931;29;20082;-90
2024/01/04 12:30:40;;;;;;;20.52;18.48;;;18.60;99.90;;;;;;4920166;29;20032;-90
2024/01/04 12:33:09;;;;;;;19.55;17.73;;;18.50;99.90;;;;;;4919712;29;20135;-90